sensor_id;sensor_type;location;lat;lon;timestamp;temperature;humidity
10581;DHT22;5338;51.500;6.802;2022-07-10T00:00:16;16.20;99.90
10581;DHT22;5338;51.500;6.802;2022-07-10T00:02:49;16.20;99.90
10581;DHT22;5338;51.500;6.802;2022-07-10T00:05:21;16.20;99.90
10581;DHT22;5338;51.500;6.802;2022-07-10T00:07:55;16.50;99.90
10581;DHT22;5338;51.500;6.802;2022-07-10T00:10:24;16.20;99.90
10581;DHT22;5338;51.500;6.802;2022-07-10T00:12:54;16.20;99.90
10581;DHT22;5338;51.500;6.802;2022-07-10T00:15:22;16.30;99.90
10581;DHT22;5338;51.500;6.802;2022-07-10T00:17:56;16.30;99.90
10581;DHT22;5338;51.500;6.802;2022-07-10T00:20:27;16.30;99.90
10581;DHT22;5338;51.500;6.802;2022-07-10T00:22:57;16.30;99.90
10581;DHT22;5338;51.500;6.802;2022-07-10T00:25:29;16.30;99.90
10581;DHT22;5338;51.500;6.802;2022-07-10T00:27:57;16.40;99.90
10581;DHT22;5338;51.500;6.802;2022-07-10T00:30:25;16.40;99.90
10581;DHT22;5338;51.500;6.802;2022-07-10T00:33:09;16.40;99.90
10581;DHT22;5338;51.500;6.802;2022-07-10T00:35:37;16.40;99.90
10581;DHT22;5338;51.500;6.802;2022-07-10T00:38:06;16.70;99.90
10581;DHT22;5338;51.500;6.802;2022-07-10T00:40:43;16.30;99.90
10581;DHT22;5338;51.500;6.802;2022-07-10T00:43:23;16.50;99.90
10581;DHT22;5338;51.500;6.802;2022-07-10T00:45:59;16.50;99.90
10581;DHT22;5338;51.500;6.802;2022-07-10T00:48:28;16.90;99.90
10581;DHT22;5338;51.500;6.802;2022-07-10T00:51:07;16.60;99.90
10581;DHT22;5338;51.500;6.802;2022-07-10T00:53:41;16.60;99.90
10581;DHT22;5338;51.500;6.802;2022-07-10T00:56:24;16.60;99.90
10581;DHT22;5338;51.500;6.802;2022-07-10T00:59:22;16.70;99.90
10581;DHT22;5338;51.500;6.802;2022-07-10T01:01:53;16.60;99.90
10581;DHT22;5338;51.500;6.802;2022-07-10T01:04:26;16.60;99.90
10581;DHT22;5338;51.500;6.802;2022-07-10T01:06:58;16.80;99.90
10581;DHT22;5338;51.500;6.802;2022-07-10T01:09:34;16.60;99.90
10581;DHT22;5338;51.500;6.802;2022-07-10T01:12:07;16.60;99.90
10581;DHT22;5338;51.500;6.802;2022-07-10T01:14:37;16.50;99.90
10581;DHT22;5338;51.500;6.802;2022-07-10T01:17:06;16.50;99.90
10581;DHT22;5338;51.500;6.802;2022-07-10T01:19:36;16.50;99.90
10581;DHT22;5338;51.500;6.802;2022-07-10T01:22:05;16.50;99.90
10581;DHT22;5338;51.500;6.802;2022-07-10T01:24:48;16.70;99.90
10581;DHT22;5338;51.500;6.802;2022-07-10T01:27:21;16.50;99.90
10581;DHT22;5338;51.500;6.802;2022-07-10T01:29:49;16.60;99.90
10581;DHT22;5338;51.500;6.802;2022-07-10T01:32:17;16.60;99.90
10581;DHT22;5338;51.500;6.802;2022-07-10T01:34:52;16.60;99.90
10581;DHT22;5338;51.500;6.802;2022-07-10T01:37:23;16.60;99.90
10581;DHT22;5338;51.500;6.802;2022-07-10T01:39:50;16.60;99.90
10581;DHT22;5338;51.500;6.802;2022-07-10T01:42:25;16.60;99.90
10581;DHT22;5338;51.500;6.802;2022-07-10T01:44:52;16.50;99.90
10581;DHT22;5338;51.500;6.802;2022-07-10T01:47:20;16.50;99.90
10581;DHT22;5338;51.500;6.802;2022-07-10T01:49:50;16.50;99.90
10581;DHT22;5338;51.500;6.802;2022-07-10T01:52:24;16.50;99.90
10581;DHT22;5338;51.500;6.802;2022-07-10T01:54:56;16.50;99.90
10581;DHT22;5338;51.500;6.802;2022-07-10T01:57:24;16.50;99.90
10581;DHT22;5338;51.500;6.802;2022-07-10T01:59:55;16.50;99.90
10581;DHT22;5338;51.500;6.802;2022-07-10T02:02:26;16.50;99.90
10581;DHT22;5338;51.500;6.802;2022-07-10T02:05:08;16.50;99.90
10581;DHT22;5338;51.500;6.802;2022-07-10T02:08:06;16.50;99.90
10581;DHT22;5338;51.500;6.802;2022-07-10T02:10:33;16.50;99.90
10581;DHT22;5338;51.500;6.802;2022-07-10T02:13:04;16.60;99.90
10581;DHT22;5338;51.500;6.802;2022-07-10T02:15:33;16.50;99.90
10581;DHT22;5338;51.500;6.802;2022-07-10T02:18:00;16.50;99.90
10581;DHT22;5338;51.500;6.802;2022-07-10T02:20:32;16.40;99.90
10581;DHT22;5338;51.500;6.802;2022-07-10T02:23:02;16.40;99.90
10581;DHT22;5338;51.500;6.802;2022-07-10T02:25:33;16.40;99.90
10581;DHT22;5338;51.500;6.802;2022-07-10T02:28:01;16.40;99.90
10581;DHT22;5338;51.500;6.802;2022-07-10T02:30:28;16.40;99.90
10581;DHT22;5338;51.500;6.802;2022-07-10T02:32:55;16.40;99.90
10581;DHT22;5338;51.500;6.802;2022-07-10T02:35:22;16.30;99.90
10581;DHT22;5338;51.500;6.802;2022-07-10T02:37:50;16.40;99.90
10581;DHT22;5338;51.500;6.802;2022-07-10T02:40:18;16.20;99.90
10581;DHT22;5338;51.500;6.802;2022-07-10T02:42:47;16.20;99.90
10581;DHT22;5338;51.500;6.802;2022-07-10T02:45:14;16.20;99.90
10581;DHT22;5338;51.500;6.802;2022-07-10T02:47:42;16.20;99.90
10581;DHT22;5338;51.500;6.802;2022-07-10T02:50:09;16.10;99.90
10581;DHT22;5338;51.500;6.802;2022-07-10T02:52:38;16.10;99.90
10581;DHT22;5338;51.500;6.802;2022-07-10T02:55:12;16.10;99.90
10581;DHT22;5338;51.500;6.802;2022-07-10T02:57:42;16.10;99.90
10581;DHT22;5338;51.500;6.802;2022-07-10T03:00:12;16.10;99.90
10581;DHT22;5338;51.500;6.802;2022-07-10T03:02:39;15.90;99.90
10581;DHT22;5338;51.500;6.802;2022-07-10T03:05:07;15.90;99.90
10581;DHT22;5338;51.500;6.802;2022-07-10T03:07:34;16.00;99.90
10581;DHT22;5338;51.500;6.802;2022-07-10T03:10:05;15.90;99.90
10581;DHT22;5338;51.500;6.802;2022-07-10T03:12:32;15.90;99.90
10581;DHT22;5338;51.500;6.802;2022-07-10T03:14:59;15.80;99.90
10581;DHT22;5338;51.500;6.802;2022-07-10T03:17:39;15.80;99.90
10581;DHT22;5338;51.500;6.802;2022-07-10T03:20:07;15.80;99.90
10581;DHT22;5338;51.500;6.802;2022-07-10T03:22:38;15.80;99.90
10581;DHT22;5338;51.500;6.802;2022-07-10T03:25:21;15.80;99.90
10581;DHT22;5338;51.500;6.802;2022-07-10T03:27:48;15.70;99.90
10581;DHT22;5338;51.500;6.802;2022-07-10T03:30:18;15.70;99.90
10581;DHT22;5338;51.500;6.802;2022-07-10T03:32:47;15.40;99.90
10581;DHT22;5338;51.500;6.802;2022-07-10T03:35:17;15.60;99.90
10581;DHT22;5338;51.500;6.802;2022-07-10T03:37:47;15.60;99.90
10581;DHT22;5338;51.500;6.802;2022-07-10T03:40:14;15.60;99.90
10581;DHT22;5338;51.500;6.802;2022-07-10T03:42:41;15.50;99.90
10581;DHT22;5338;51.500;6.802;2022-07-10T03:45:09;15.40;99.90
10581;DHT22;5338;51.500;6.802;2022-07-10T03:47:37;15.50;99.90
10581;DHT22;5338;51.500;6.802;2022-07-10T03:50:06;15.50;99.90
10581;DHT22;5338;51.500;6.802;2022-07-10T03:52:35;15.40;99.90
10581;DHT22;5338;51.500;6.802;2022-07-10T03:55:04;15.40;99.90
10581;DHT22;5338;51.500;6.802;2022-07-10T03:57:31;15.40;99.90
10581;DHT22;5338;51.500;6.802;2022-07-10T04:00:16;15.40;99.90
10581;DHT22;5338;51.500;6.802;2022-07-10T04:02:43;15.40;99.90
10581;DHT22;5338;51.500;6.802;2022-07-10T04:05:18;15.30;99.90
10581;DHT22;5338;51.500;6.802;2022-07-10T04:07:45;15.40;99.90
10581;DHT22;5338;51.500;6.802;2022-07-10T04:10:12;15.40;99.90
10581;DHT22;5338;51.500;6.802;2022-07-10T04:12:39;15.40;99.90
10581;DHT22;5338;51.500;6.802;2022-07-10T04:15:08;15.50;99.90
10581;DHT22;5338;51.500;6.802;2022-07-10T04:17:35;15.50;99.90
10581;DHT22;5338;51.500;6.802;2022-07-10T04:20:04;15.50;99.90
10581;DHT22;5338;51.500;6.802;2022-07-10T04:22:32;15.40;99.90
10581;DHT22;5338;51.500;6.802;2022-07-10T04:24:59;15.50;99.90
10581;DHT22;5338;51.500;6.802;2022-07-10T04:27:27;15.50;99.90
10581;DHT22;5338;51.500;6.802;2022-07-10T04:29:54;15.50;99.90
10581;DHT22;5338;51.500;6.802;2022-07-10T04:32:21;15.60;99.90
10581;DHT22;5338;51.500;6.802;2022-07-10T04:34:48;15.50;99.90
10581;DHT22;5338;51.500;6.802;2022-07-10T04:39:44;15.60;99.90
10581;DHT22;5338;51.500;6.802;2022-07-10T04:42:12;15.60;99.90
10581;DHT22;5338;51.500;6.802;2022-07-10T04:44:39;15.60;99.90
10581;DHT22;5338;51.500;6.802;2022-07-10T04:47:07;15.60;99.90
10581;DHT22;5338;51.500;6.802;2022-07-10T04:49:35;15.70;99.90
10581;DHT22;5338;51.500;6.802;2022-07-10T04:52:02;15.70;99.90
10581;DHT22;5338;51.500;6.802;2022-07-10T04:54:29;15.80;99.90
10581;DHT22;5338;51.500;6.802;2022-07-10T04:56:59;15.80;99.90
10581;DHT22;5338;51.500;6.802;2022-07-10T04:59:29;15.80;99.90
10581;DHT22;5338;51.500;6.802;2022-07-10T05:01:56;15.90;99.90
10581;DHT22;5338;51.500;6.802;2022-07-10T05:04:23;15.90;99.90
10581;DHT22;5338;51.500;6.802;2022-07-10T05:06:51;16.00;99.90
10581;DHT22;5338;51.500;6.802;2022-07-10T05:09:20;16.80;99.90
10581;DHT22;5338;51.500;6.802;2022-07-10T05:11:48;16.00;99.90
10581;DHT22;5338;51.500;6.802;2022-07-10T05:14:19;16.00;99.90
10581;DHT22;5338;51.500;6.802;2022-07-10T05:16:47;16.10;99.90
10581;DHT22;5338;51.500;6.802;2022-07-10T05:19:20;15.90;99.90
10581;DHT22;5338;51.500;6.802;2022-07-10T05:21:51;16.10;99.90
10581;DHT22;5338;51.500;6.802;2022-07-10T05:24:20;16.10;99.90
10581;DHT22;5338;51.500;6.802;2022-07-10T05:26:47;16.10;99.90
10581;DHT22;5338;51.500;6.802;2022-07-10T05:29:15;16.20;99.90
10581;DHT22;5338;51.500;6.802;2022-07-10T05:31:43;16.20;99.90
10581;DHT22;5338;51.500;6.802;2022-07-10T05:34:10;16.10;99.90
10581;DHT22;5338;51.500;6.802;2022-07-10T05:36:37;16.30;99.90
10581;DHT22;5338;51.500;6.802;2022-07-10T05:39:04;16.20;99.90
10581;DHT22;5338;51.500;6.802;2022-07-10T05:41:31;16.40;99.90
10581;DHT22;5338;51.500;6.802;2022-07-10T05:43:58;16.40;99.90
10581;DHT22;5338;51.500;6.802;2022-07-10T05:46:25;16.40;99.90
10581;DHT22;5338;51.500;6.802;2022-07-10T05:48:54;16.30;99.90
10581;DHT22;5338;51.500;6.802;2022-07-10T05:51:22;16.30;99.90
10581;DHT22;5338;51.500;6.802;2022-07-10T05:53:49;16.30;99.90
10581;DHT22;5338;51.500;6.802;2022-07-10T05:56:16;16.40;99.90
10581;DHT22;5338;51.500;6.802;2022-07-10T05:58:44;16.40;99.90
10581;DHT22;5338;51.500;6.802;2022-07-10T06:01:11;16.40;99.90
10581;DHT22;5338;51.500;6.802;2022-07-10T06:03:45;16.40;99.90
10581;DHT22;5338;51.500;6.802;2022-07-10T06:06:14;16.40;99.90
10581;DHT22;5338;51.500;6.802;2022-07-10T06:08:44;16.40;99.90
10581;DHT22;5338;51.500;6.802;2022-07-10T06:11:12;16.40;99.90
10581;DHT22;5338;51.500;6.802;2022-07-10T06:13:39;16.40;99.90
10581;DHT22;5338;51.500;6.802;2022-07-10T06:16:08;16.40;99.90
10581;DHT22;5338;51.500;6.802;2022-07-10T06:18:35;16.40;99.90
10581;DHT22;5338;51.500;6.802;2022-07-10T06:21:05;16.30;99.90
10581;DHT22;5338;51.500;6.802;2022-07-10T06:23:35;16.30;99.90
10581;DHT22;5338;51.500;6.802;2022-07-10T06:26:02;16.40;99.90
10581;DHT22;5338;51.500;6.802;2022-07-10T06:28:29;16.40;99.90
10581;DHT22;5338;51.500;6.802;2022-07-10T06:30:56;16.40;99.90
10581;DHT22;5338;51.500;6.802;2022-07-10T06:33:45;16.40;99.90
10581;DHT22;5338;51.500;6.802;2022-07-10T06:36:12;16.20;99.90
10581;DHT22;5338;51.500;6.802;2022-07-10T06:38:40;16.20;99.90
10581;DHT22;5338;51.500;6.802;2022-07-10T06:41:08;16.30;99.90
10581;DHT22;5338;51.500;6.802;2022-07-10T06:43:36;16.40;99.90
10581;DHT22;5338;51.500;6.802;2022-07-10T06:46:03;16.30;99.90
10581;DHT22;5338;51.500;6.802;2022-07-10T06:48:31;16.40;99.90
10581;DHT22;5338;51.500;6.802;2022-07-10T06:50:58;16.40;99.90
10581;DHT22;5338;51.500;6.802;2022-07-10T06:53:25;16.40;99.90
10581;DHT22;5338;51.500;6.802;2022-07-10T06:55:54;16.40;99.90
10581;DHT22;5338;51.500;6.802;2022-07-10T06:58:21;16.40;99.90
10581;DHT22;5338;51.500;6.802;2022-07-10T07:00:48;16.50;99.90
10581;DHT22;5338;51.500;6.802;2022-07-10T07:03:15;16.50;99.90
10581;DHT22;5338;51.500;6.802;2022-07-10T07:05:43;16.60;99.90
10581;DHT22;5338;51.500;6.802;2022-07-10T07:08:10;16.60;99.90
10581;DHT22;5338;51.500;6.802;2022-07-10T07:10:39;16.50;99.90
10581;DHT22;5338;51.500;6.802;2022-07-10T07:13:11;16.50;99.90
10581;DHT22;5338;51.500;6.802;2022-07-10T07:15:38;16.80;99.90
10581;DHT22;5338;51.500;6.802;2022-07-10T07:18:11;17.20;99.90
10581;DHT22;5338;51.500;6.802;2022-07-10T07:20:42;17.40;99.90
10581;DHT22;5338;51.500;6.802;2022-07-10T07:23:26;17.50;99.90
10581;DHT22;5338;51.500;6.802;2022-07-10T07:25:53;17.60;99.90
10581;DHT22;5338;51.500;6.802;2022-07-10T07:28:22;17.60;99.90
10581;DHT22;5338;51.500;6.802;2022-07-10T07:30:49;17.70;99.90
10581;DHT22;5338;51.500;6.802;2022-07-10T07:33:17;17.80;99.90
10581;DHT22;5338;51.500;6.802;2022-07-10T07:35:44;17.90;99.90
10581;DHT22;5338;51.500;6.802;2022-07-10T07:38:11;18.00;99.90
10581;DHT22;5338;51.500;6.802;2022-07-10T07:40:38;18.20;99.90
10581;DHT22;5338;51.500;6.802;2022-07-10T07:43:05;18.00;99.90
10581;DHT22;5338;51.500;6.802;2022-07-10T07:45:34;18.00;99.90
10581;DHT22;5338;51.500;6.802;2022-07-10T07:48:01;18.10;99.90
10581;DHT22;5338;51.500;6.802;2022-07-10T07:50:30;18.10;99.90
10581;DHT22;5338;51.500;6.802;2022-07-10T07:53:05;18.10;99.90
10581;DHT22;5338;51.500;6.802;2022-07-10T07:55:33;18.10;99.90
10581;DHT22;5338;51.500;6.802;2022-07-10T08:00:29;18.20;99.90
10581;DHT22;5338;51.500;6.802;2022-07-10T08:02:58;18.20;99.90
10581;DHT22;5338;51.500;6.802;2022-07-10T08:05:26;18.20;99.90
10581;DHT22;5338;51.500;6.802;2022-07-10T08:07:54;18.10;99.90
10581;DHT22;5338;51.500;6.802;2022-07-10T08:10:26;18.10;99.90
10581;DHT22;5338;51.500;6.802;2022-07-10T08:12:57;18.10;99.90
10581;DHT22;5338;51.500;6.802;2022-07-10T08:18:00;18.10;99.90
10581;DHT22;5338;51.500;6.802;2022-07-10T08:20:29;18.10;99.90
10581;DHT22;5338;51.500;6.802;2022-07-10T08:22:57;18.10;99.90
10581;DHT22;5338;51.500;6.802;2022-07-10T08:25:24;18.00;99.90
10581;DHT22;5338;51.500;6.802;2022-07-10T08:27:51;18.00;99.90
10581;DHT22;5338;51.500;6.802;2022-07-10T08:30:19;18.00;99.90
10581;DHT22;5338;51.500;6.802;2022-07-10T08:32:46;18.00;99.90
10581;DHT22;5338;51.500;6.802;2022-07-10T08:35:14;18.10;99.90
10581;DHT22;5338;51.500;6.802;2022-07-10T08:37:43;18.10;99.90
10581;DHT22;5338;51.500;6.802;2022-07-10T08:40:12;18.30;99.90
10581;DHT22;5338;51.500;6.802;2022-07-10T08:42:40;18.30;99.90
10581;DHT22;5338;51.500;6.802;2022-07-10T08:45:10;18.40;99.90
10581;DHT22;5338;51.500;6.802;2022-07-10T08:47:37;18.30;99.90
10581;DHT22;5338;51.500;6.802;2022-07-10T08:50:17;18.00;99.90
10581;DHT22;5338;51.500;6.802;2022-07-10T08:52:52;17.70;99.90
10581;DHT22;5338;51.500;6.802;2022-07-10T08:55:23;17.30;99.90
10581;DHT22;5338;51.500;6.802;2022-07-10T08:57:51;17.40;99.90
10581;DHT22;5338;51.500;6.802;2022-07-10T09:00:18;17.60;99.90
10581;DHT22;5338;51.500;6.802;2022-07-10T09:02:46;17.30;99.90
10581;DHT22;5338;51.500;6.802;2022-07-10T09:05:13;17.40;99.90
10581;DHT22;5338;51.500;6.802;2022-07-10T09:07:41;17.40;99.90
10581;DHT22;5338;51.500;6.802;2022-07-10T09:10:10;17.40;99.90
10581;DHT22;5338;51.500;6.802;2022-07-10T09:12:54;17.30;99.90
10581;DHT22;5338;51.500;6.802;2022-07-10T09:15:23;17.20;99.90
10581;DHT22;5338;51.500;6.802;2022-07-10T09:17:54;17.20;99.90
10581;DHT22;5338;51.500;6.802;2022-07-10T09:20:33;17.20;99.90
10581;DHT22;5338;51.500;6.802;2022-07-10T09:23:15;17.10;99.90
10581;DHT22;5338;51.500;6.802;2022-07-10T09:25:43;17.00;99.90
10581;DHT22;5338;51.500;6.802;2022-07-10T09:28:12;17.00;99.90
10581;DHT22;5338;51.500;6.802;2022-07-10T09:30:39;17.00;99.90
10581;DHT22;5338;51.500;6.802;2022-07-10T09:33:24;16.90;99.90
10581;DHT22;5338;51.500;6.802;2022-07-10T09:35:59;16.90;99.90
10581;DHT22;5338;51.500;6.802;2022-07-10T09:38:53;16.70;99.90
10581;DHT22;5338;51.500;6.802;2022-07-10T09:41:24;16.90;99.90
10581;DHT22;5338;51.500;6.802;2022-07-10T09:43:55;16.90;99.90
10581;DHT22;5338;51.500;6.802;2022-07-10T09:46:31;16.90;99.90
10581;DHT22;5338;51.500;6.802;2022-07-10T09:49:06;16.90;99.90
10581;DHT22;5338;51.500;6.802;2022-07-10T09:51:35;17.00;99.90
10581;DHT22;5338;51.500;6.802;2022-07-10T09:54:13;17.00;99.90
10581;DHT22;5338;51.500;6.802;2022-07-10T09:56:42;17.10;99.90
10581;DHT22;5338;51.500;6.802;2022-07-10T09:59:11;17.00;99.90
10581;DHT22;5338;51.500;6.802;2022-07-10T10:01:43;17.20;99.90
10581;DHT22;5338;51.500;6.802;2022-07-10T10:04:12;17.30;99.90
10581;DHT22;5338;51.500;6.802;2022-07-10T10:06:40;17.30;99.90
10581;DHT22;5338;51.500;6.802;2022-07-10T10:09:12;17.50;99.90
10581;DHT22;5338;51.500;6.802;2022-07-10T10:11:44;17.20;99.90
10581;DHT22;5338;51.500;6.802;2022-07-10T10:14:16;17.10;99.90
10581;DHT22;5338;51.500;6.802;2022-07-10T10:16:46;17.20;99.90
10581;DHT22;5338;51.500;6.802;2022-07-10T10:19:14;17.00;99.90
10581;DHT22;5338;51.500;6.802;2022-07-10T10:22:01;17.10;99.90
10581;DHT22;5338;51.500;6.802;2022-07-10T10:24:31;17.10;99.90
10581;DHT22;5338;51.500;6.802;2022-07-10T10:27:01;17.10;99.90
10581;DHT22;5338;51.500;6.802;2022-07-10T10:29:28;17.20;99.90
10581;DHT22;5338;51.500;6.802;2022-07-10T10:31:56;17.20;99.90
10581;DHT22;5338;51.500;6.802;2022-07-10T10:34:40;17.40;99.90
10581;DHT22;5338;51.500;6.802;2022-07-10T10:37:32;17.50;99.90
10581;DHT22;5338;51.500;6.802;2022-07-10T10:40:00;17.50;99.90
10581;DHT22;5338;51.500;6.802;2022-07-10T10:42:36;17.50;99.90
10581;DHT22;5338;51.500;6.802;2022-07-10T10:45:28;17.50;99.90
10581;DHT22;5338;51.500;6.802;2022-07-10T10:47:59;17.50;99.90
10581;DHT22;5338;51.500;6.802;2022-07-10T10:50:36;17.30;99.90
10581;DHT22;5338;51.500;6.802;2022-07-10T10:53:05;17.30;99.90
10581;DHT22;5338;51.500;6.802;2022-07-10T10:55:41;17.20;99.90
10581;DHT22;5338;51.500;6.802;2022-07-10T10:58:35;17.20;99.90
10581;DHT22;5338;51.500;6.802;2022-07-10T11:01:22;17.30;99.90
10581;DHT22;5338;51.500;6.802;2022-07-10T11:06:54;17.40;99.90
10581;DHT22;5338;51.500;6.802;2022-07-10T11:09:29;17.10;99.90
10581;DHT22;5338;51.500;6.802;2022-07-10T11:12:07;17.30;99.90
10581;DHT22;5338;51.500;6.802;2022-07-10T11:14:37;17.40;99.90
10581;DHT22;5338;51.500;6.802;2022-07-10T11:17:11;17.60;99.90
10581;DHT22;5338;51.500;6.802;2022-07-10T11:19:39;17.70;99.90
10581;DHT22;5338;51.500;6.802;2022-07-10T11:22:40;17.50;99.90
10581;DHT22;5338;51.500;6.802;2022-07-10T11:25:23;17.70;99.90
10581;DHT22;5338;51.500;6.802;2022-07-10T11:28:05;17.60;99.90
10581;DHT22;5338;51.500;6.802;2022-07-10T11:30:49;17.70;99.90
10581;DHT22;5338;51.500;6.802;2022-07-10T11:33:17;17.90;99.90
10581;DHT22;5338;51.500;6.802;2022-07-10T11:35:48;18.10;99.90
10581;DHT22;5338;51.500;6.802;2022-07-10T11:38:20;18.30;99.90
10581;DHT22;5338;51.500;6.802;2022-07-10T11:40:47;18.30;99.90
10581;DHT22;5338;51.500;6.802;2022-07-10T11:43:15;18.30;99.90
10581;DHT22;5338;51.500;6.802;2022-07-10T11:45:47;18.20;99.90
10581;DHT22;5338;51.500;6.802;2022-07-10T11:48:20;18.20;99.90
10581;DHT22;5338;51.500;6.802;2022-07-10T11:50:49;18.00;99.90
10581;DHT22;5338;51.500;6.802;2022-07-10T11:53:25;18.00;99.90
10581;DHT22;5338;51.500;6.802;2022-07-10T11:55:54;18.00;99.90
10581;DHT22;5338;51.500;6.802;2022-07-10T11:58:21;18.10;99.90
10581;DHT22;5338;51.500;6.802;2022-07-10T12:01:01;18.20;99.90
10581;DHT22;5338;51.500;6.802;2022-07-10T12:03:31;18.10;99.90
10581;DHT22;5338;51.500;6.802;2022-07-10T12:06:03;18.10;99.90
10581;DHT22;5338;51.500;6.802;2022-07-10T12:08:41;18.00;99.90
10581;DHT22;5338;51.500;6.802;2022-07-10T12:11:32;18.40;99.90
10581;DHT22;5338;51.500;6.802;2022-07-10T12:14:25;17.70;99.90
10581;DHT22;5338;51.500;6.802;2022-07-10T12:17:10;17.80;99.90
10581;DHT22;5338;51.500;6.802;2022-07-10T12:19:38;17.90;99.90
10581;DHT22;5338;51.500;6.802;2022-07-10T12:22:06;18.10;99.90
10581;DHT22;5338;51.500;6.802;2022-07-10T12:24:34;18.30;99.90
10581;DHT22;5338;51.500;6.802;2022-07-10T12:27:02;18.40;99.90
10581;DHT22;5338;51.500;6.802;2022-07-10T12:29:30;18.40;99.90
10581;DHT22;5338;51.500;6.802;2022-07-10T12:31:59;18.50;99.90
10581;DHT22;5338;51.500;6.802;2022-07-10T12:34:42;18.80;99.90
10581;DHT22;5338;51.500;6.802;2022-07-10T12:37:15;19.20;99.90
10581;DHT22;5338;51.500;6.802;2022-07-10T12:39:51;19.50;99.90
10581;DHT22;5338;51.500;6.802;2022-07-10T12:42:25;19.80;99.90
10581;DHT22;5338;51.500;6.802;2022-07-10T12:44:54;20.20;99.90
10581;DHT22;5338;51.500;6.802;2022-07-10T12:47:43;20.30;99.90
10581;DHT22;5338;51.500;6.802;2022-07-10T12:50:15;20.20;99.90
10581;DHT22;5338;51.500;6.802;2022-07-10T12:52:43;20.00;99.90
10581;DHT22;5338;51.500;6.802;2022-07-10T12:55:11;19.80;99.90
10581;DHT22;5338;51.500;6.802;2022-07-10T12:57:51;19.60;99.90
10581;DHT22;5338;51.500;6.802;2022-07-10T13:00:25;19.70;99.90
10581;DHT22;5338;51.500;6.802;2022-07-10T13:02:58;19.90;99.90
10581;DHT22;5338;51.500;6.802;2022-07-10T13:05:29;20.20;99.90
10581;DHT22;5338;51.500;6.802;2022-07-10T13:08:08;20.60;99.90
10581;DHT22;5338;51.500;6.802;2022-07-10T13:10:39;21.40;99.90
10581;DHT22;5338;51.500;6.802;2022-07-10T13:13:07;21.40;99.90
10581;DHT22;5338;51.500;6.802;2022-07-10T13:15:35;21.60;99.90
10581;DHT22;5338;51.500;6.802;2022-07-10T13:18:06;21.70;99.90
10581;DHT22;5338;51.500;6.802;2022-07-10T13:20:34;21.50;99.90
10581;DHT22;5338;51.500;6.802;2022-07-10T13:23:02;21.20;99.90
10581;DHT22;5338;51.500;6.802;2022-07-10T13:25:29;21.30;99.90
10581;DHT22;5338;51.500;6.802;2022-07-10T13:28:11;21.20;99.90
10581;DHT22;5338;51.500;6.802;2022-07-10T13:30:38;21.00;99.90
10581;DHT22;5338;51.500;6.802;2022-07-10T13:33:11;20.70;99.90
10581;DHT22;5338;51.500;6.802;2022-07-10T13:35:43;20.50;99.90
10581;DHT22;5338;51.500;6.802;2022-07-10T13:38:11;19.80;99.90
10581;DHT22;5338;51.500;6.802;2022-07-10T13:40:39;20.00;99.90
10581;DHT22;5338;51.500;6.802;2022-07-10T13:43:10;19.60;99.90
10581;DHT22;5338;51.500;6.802;2022-07-10T13:45:47;19.80;99.90
10581;DHT22;5338;51.500;6.802;2022-07-10T13:48:17;19.60;99.90
10581;DHT22;5338;51.500;6.802;2022-07-10T13:50:47;19.50;99.90
10581;DHT22;5338;51.500;6.802;2022-07-10T13:53:17;19.40;99.90
10581;DHT22;5338;51.500;6.802;2022-07-10T13:55:47;19.30;99.90
10581;DHT22;5338;51.500;6.802;2022-07-10T13:58:17;19.30;99.90
10581;DHT22;5338;51.500;6.802;2022-07-10T14:00:46;19.10;99.90
10581;DHT22;5338;51.500;6.802;2022-07-10T14:03:19;19.10;99.90
10581;DHT22;5338;51.500;6.802;2022-07-10T14:06:03;19.10;99.90
10581;DHT22;5338;51.500;6.802;2022-07-10T14:08:32;19.10;99.90
10581;DHT22;5338;51.500;6.802;2022-07-10T14:10:59;19.20;99.90
10581;DHT22;5338;51.500;6.802;2022-07-10T14:13:30;19.20;99.90
10581;DHT22;5338;51.500;6.802;2022-07-10T14:16:00;19.20;99.90
10581;DHT22;5338;51.500;6.802;2022-07-10T14:18:31;19.20;99.90
10581;DHT22;5338;51.500;6.802;2022-07-10T14:21:11;19.30;99.90
10581;DHT22;5338;51.500;6.802;2022-07-10T14:23:40;19.40;99.90
10581;DHT22;5338;51.500;6.802;2022-07-10T14:26:11;19.50;99.90
10581;DHT22;5338;51.500;6.802;2022-07-10T14:28:42;19.50;99.90
10581;DHT22;5338;51.500;6.802;2022-07-10T14:31:09;19.50;99.90
10581;DHT22;5338;51.500;6.802;2022-07-10T14:33:38;19.40;99.90
10581;DHT22;5338;51.500;6.802;2022-07-10T14:36:18;19.30;99.90
10581;DHT22;5338;51.500;6.802;2022-07-10T14:38:54;19.30;99.90
10581;DHT22;5338;51.500;6.802;2022-07-10T14:41:22;19.30;99.90
10581;DHT22;5338;51.500;6.802;2022-07-10T14:43:54;19.30;99.90
10581;DHT22;5338;51.500;6.802;2022-07-10T14:46:29;19.40;99.90
10581;DHT22;5338;51.500;6.802;2022-07-10T14:48:56;19.40;99.90
10581;DHT22;5338;51.500;6.802;2022-07-10T14:51:25;19.50;99.90
10581;DHT22;5338;51.500;6.802;2022-07-10T14:53:52;19.70;99.90
10581;DHT22;5338;51.500;6.802;2022-07-10T14:56:19;19.80;99.90
10581;DHT22;5338;51.500;6.802;2022-07-10T14:58:49;19.90;99.90
10581;DHT22;5338;51.500;6.802;2022-07-10T15:01:16;20.00;99.90
10581;DHT22;5338;51.500;6.802;2022-07-10T15:03:43;20.00;99.90
10581;DHT22;5338;51.500;6.802;2022-07-10T15:06:13;19.90;99.90
10581;DHT22;5338;51.500;6.802;2022-07-10T15:08:42;19.70;99.90
10581;DHT22;5338;51.500;6.802;2022-07-10T15:11:08;19.70;99.90
10581;DHT22;5338;51.500;6.802;2022-07-10T15:13:35;19.70;99.90
10581;DHT22;5338;51.500;6.802;2022-07-10T15:16:03;19.70;99.90
10581;DHT22;5338;51.500;6.802;2022-07-10T15:18:30;19.80;99.90
10581;DHT22;5338;51.500;6.802;2022-07-10T15:20:57;19.80;99.90
10581;DHT22;5338;51.500;6.802;2022-07-10T15:23:24;19.80;99.90
10581;DHT22;5338;51.500;6.802;2022-07-10T15:25:54;19.90;99.90
10581;DHT22;5338;51.500;6.802;2022-07-10T15:28:22;19.90;99.90
10581;DHT22;5338;51.500;6.802;2022-07-10T15:30:49;20.10;99.90
10581;DHT22;5338;51.500;6.802;2022-07-10T15:33:17;20.20;99.90
10581;DHT22;5338;51.500;6.802;2022-07-10T15:35:44;20.30;99.90
10581;DHT22;5338;51.500;6.802;2022-07-10T15:38:12;20.70;99.90
10581;DHT22;5338;51.500;6.802;2022-07-10T15:40:39;20.80;99.90
10581;DHT22;5338;51.500;6.802;2022-07-10T15:43:14;20.80;99.90
10581;DHT22;5338;51.500;6.802;2022-07-10T15:45:42;20.60;99.90
10581;DHT22;5338;51.500;6.802;2022-07-10T15:48:09;20.50;99.90
10581;DHT22;5338;51.500;6.802;2022-07-10T15:50:43;20.40;99.90
10581;DHT22;5338;51.500;6.802;2022-07-10T15:53:10;20.30;99.90
10581;DHT22;5338;51.500;6.802;2022-07-10T15:55:37;20.30;99.90
10581;DHT22;5338;51.500;6.802;2022-07-10T15:58:04;20.20;99.90
10581;DHT22;5338;51.500;6.802;2022-07-10T16:00:33;20.20;99.90
10581;DHT22;5338;51.500;6.802;2022-07-10T16:03:00;20.20;99.90
10581;DHT22;5338;51.500;6.802;2022-07-10T16:05:28;20.00;99.90
10581;DHT22;5338;51.500;6.802;2022-07-10T16:07:55;19.70;99.90
10581;DHT22;5338;51.500;6.802;2022-07-10T16:10:25;19.90;99.90
10581;DHT22;5338;51.500;6.802;2022-07-10T16:12:52;19.80;99.90
10581;DHT22;5338;51.500;6.802;2022-07-10T16:15:25;19.80;99.90
10581;DHT22;5338;51.500;6.802;2022-07-10T16:17:59;19.70;99.90